Terri L. Brusco — WDC3034 — position and weather

sailwx.info

Track history (hours):
 
Tides and Currents Weather Stations Pressure Air Temp Water Temp Dewpoint Dewpoint Depression Visibility Wind Speed Wind Dir Waves Ship Positions

Terri L. Brusco

Owner: Brusco Tug & Barge, Inc., Longview, WA. More information available from US FCC via Universal Licensing System and Coast Guard Vessel Documentation Center.

Last reported at 2016-Jul-28 08:32 UTC. Time now 2016-Jul-28 08:38 UTC.
Position N 37°59' W 122°27'.

Length 21 m; draft 4 m.

Type: Tug. MMSI: 367001830.

Date/timePositionNaut miles runAvg speedWind from/ knotsBaromVisibWave heightAir tempDewpointWater temp
2016-Jul-28 08:32N 37°59' W 122°27'0 0.0
2016-Jul-28 07:33N 37°59' W 122°27'0 0.0
2016-Jul-28 06:33N 37°59' W 122°27'0 0.0
2016-Jul-28 05:33N 37°59' W 122°27'0 0.0
2016-Jul-28 04:33N 37°59' W 122°27'2 0.9
2016-Jul-28 02:33N 37°57' W 122°27'8 8.0
2016-Jul-28 01:33N 37°49' W 122°25'3 3.2
2016-Jul-28 00:33N 37°48' W 122°21'1 0.9
2016-Jul-27 23:34N 37°49' W 122°21'10 9.5
2016-Jul-27 22:33N 37°58' W 122°26'3 3.0
2016-Jul-27 21:33N 37°55' W 122°27'6 6.4
2016-Jul-27 20:33N 37°49' W 122°26'0 0.1
2016-Jul-27 19:33N 37°49' W 122°26'6 5.6
2016-Jul-27 18:33N 37°49' W 122°19'0 0.4
2016-Jul-27 17:33N 37°49' W 122°19'0 0.0
2016-Jul-27 16:33N 37°49' W 122°19'5 4.7
2016-Jul-27 15:33N 37°49' W 122°24'0 0.2
2016-Jul-27 14:33N 37°49' W 122°25'1 0.8
2016-Jul-27 13:33N 37°48' W 122°24'4 4.4
2016-Jul-27 12:33N 37°49' W 122°18'0 0.0
2016-Jul-27 11:33N 37°49' W 122°18'0 0.0
2016-Jul-27 10:33N 37°49' W 122°18'0 0.0
2016-Jul-27 09:33N 37°49' W 122°18'0 0.0
2016-Jul-27 08:33N 37°49' W 122°18'0 0.0
2016-Jul-27 07:33N 37°49' W 122°18'0 0.0
2016-Jul-27 06:33N 37°49' W 122°18'0 0.0
2016-Jul-27 05:33N 37°49' W 122°18'0 0.0
2016-Jul-27 04:33N 37°49' W 122°18'0 0.0
2016-Jul-27 03:33N 37°49' W 122°18'4 4.2
2016-Jul-27 02:33N 37°51' W 122°23'7 7.1
2016-Jul-27 01:33N 37°58' W 122°26'1 0.7
2016-Jul-26 23:28N 37°59' W 122°27'0 0.0
2016-Jul-26 22:33N 37°59' W 122°27'0 0.0
2016-Jul-26 21:27N 37°59' W 122°27'0 0.3
2016-Jul-26 20:33N 37°59' W 122°27'4 3.9
2016-Jul-26 19:33N 37°55' W 122°27'7 6.7
2016-Jul-26 18:33N 37°49' W 122°24'1 1.1
2016-Jul-26 17:33N 37°49' W 122°25'1 0.6
2016-Jul-26 16:33N 37°49' W 122°24'7 7.0
2016-Jul-26 15:33N 37°55' W 122°27'4 3.6
2016-Jul-26 14:31N 37°59' W 122°27'0 0.1
2016-Jul-26 13:33N 37°59' W 122°27'0 0.0
2016-Jul-26 11:32N 37°59' W 122°27'0 0.0
2016-Jul-26 10:33N 37°59' W 122°27'0 0.0
2016-Jul-26 09:32N 37°59' W 122°27'0 0.1
2016-Jul-26 08:33N 37°59' W 122°27'0 0.0
2016-Jul-26 07:32N 37°59' W 122°27'0 0.0
2016-Jul-26 06:33N 37°59' W 122°27'1 1.2
2016-Jul-26 05:33N 37°58' W 122°27'5 5.3
2016-Jul-26 04:33N 37°53' W 122°25'4 4.3
2016-Jul-26 03:33N 37°48' W 122°26'0 0.2
2016-Jul-26 02:34N 37°49' W 122°27'0 0.0
2016-Jul-26 01:33N 37°49' W 122°27'0 0.0
2016-Jul-26 00:33N 37°49' W 122°27'3 2.5
2016-Jul-25 23:33N 37°49' W 122°23'2 1.7
2016-Jul-25 22:34N 37°50' W 122°22'10 9.7
2016-Jul-25 21:33N 37°59' W 122°26'5 4.8
2016-Jul-25 20:33N 37°54' W 122°26'6 5.7
2016-Jul-25 19:33N 37°49' W 122°26'6 6.0
2016-Jul-25 18:33N 37°49' W 122°19'4 4.4
2016-Jul-25 17:33N 37°48' W 122°24'1 1.1
2016-Jul-25 16:33N 37°49' W 122°23'1 1.0
2016-Jul-25 15:33N 37°48' W 122°24'0 0.0
2016-Jul-25 14:33N 37°48' W 122°24'0 0.0
2016-Jul-25 13:33N 37°48' W 122°24'3 3.4
2016-Jul-25 12:33N 37°49' W 122°20'1 1.2
2016-Jul-25 11:33N 37°49' W 122°18'0 0.0
2016-Jul-25 10:33N 37°49' W 122°18'0 0.0
2016-Jul-25 09:33N 37°49' W 122°18'0 0.0
2016-Jul-25 08:33N 37°49' W 122°18'0 0.0
2016-Jul-25 07:33N 37°49' W 122°18'0 0.0
2016-Jul-25 06:33N 37°49' W 122°18'0 0.0
2016-Jul-25 05:33N 37°49' W 122°18'0 0.0
2016-Jul-25 04:33N 37°49' W 122°18'0 0.0
2016-Jul-25 03:33N 37°49' W 122°18'0 0.0
2016-Jul-25 02:33N 37°49' W 122°18'0 0.0
2016-Jul-25 01:33N 37°49' W 122°18'0 0.0
2016-Jul-25 00:33N 37°49' W 122°18'0 0.0
2016-Jul-24 23:34N 37°49' W 122°18'0 0.0
2016-Jul-24 22:33N 37°49' W 122°18'0 0.0
2016-Jul-24 21:33N 37°49' W 122°18'0 0.0
2016-Jul-24 20:33N 37°49' W 122°18'0 0.0
2016-Jul-24 19:33N 37°49' W 122°18'0 0.0
2016-Jul-24 18:33N 37°49' W 122°18'0 0.0
2016-Jul-24 17:33N 37°49' W 122°18'0 0.0
2016-Jul-24 16:33N 37°49' W 122°18'0 0.0
2016-Jul-24 15:33N 37°49' W 122°19'0 0.0
2016-Jul-24 14:33N 37°49' W 122°19'0 0.0
2016-Jul-24 13:33N 37°49' W 122°19'0 0.0
2016-Jul-24 12:33N 37°49' W 122°19'0 0.0
2016-Jul-24 11:33N 37°49' W 122°19'0 0.0
2016-Jul-24 10:33N 37°49' W 122°19'0 0.0
2016-Jul-24 09:33N 37°49' W 122°19'2 1.6
2016-Jul-24 08:33N 37°48' W 122°20'2 1.7
2016-Jul-24 07:33N 37°49' W 122°18'0 0.0
2016-Jul-24 06:33N 37°49' W 122°18'0 0.0
2016-Jul-24 05:33N 37°49' W 122°18'0 0.0
2016-Jul-24 04:33N 37°49' W 122°18'0 0.0
2016-Jul-24 03:33N 37°49' W 122°18'0 0.0
2016-Jul-24 02:33N 37°49' W 122°18'0 0.0
2016-Jul-24 01:33N 37°49' W 122°18'0 0.0
2016-Jul-24 00:33N 37°49' W 122°18'1 1.2
2016-Jul-23 23:33N 37°49' W 122°20'1 1.1
2016-Jul-23 22:33N 37°49' W 122°19'0 0.0
2016-Jul-23 21:33N 37°49' W 122°19'1 1.3
2016-Jul-23 20:33N 37°49' W 122°20'1 1.4
2016-Jul-23 19:33N 37°49' W 122°18'0 0.0
2016-Jul-23 18:34N 37°49' W 122°18'0 0.0
2016-Jul-23 17:33N 37°49' W 122°18'0 0.0
2016-Jul-23 16:33N 37°49' W 122°18'0 0.0
2016-Jul-23 15:33N 37°49' W 122°18'0 0.0
2016-Jul-23 14:33N 37°49' W 122°18'2 1.7
2016-Jul-23 13:33N 37°48' W 122°20'2 1.6
2016-Jul-23 12:33N 37°49' W 122°19'0 0.0
2016-Jul-23 11:33N 37°49' W 122°19'0 0.0
2016-Jul-23 10:33N 37°49' W 122°19'0 0.0
2016-Jul-23 09:33N 37°49' W 122°19'0 0.0
2016-Jul-23 08:33N 37°49' W 122°19'1 1.5
2016-Jul-23 07:33N 37°49' W 122°20'5 5.0
2016-Jul-23 06:33N 37°46' W 122°15'0 0.0
2016-Jul-23 04:34N 37°46' W 122°15'0 0.0
2016-Jul-23 03:33N 37°46' W 122°15'0 0.0
2016-Jul-23 02:33N 37°46' W 122°15'0 0.5
2016-Jul-23 01:33N 37°47' W 122°15'4 4.0
2016-Jul-23 00:33N 37°49' W 122°19'1 1.3
2016-Jul-22 23:33N 37°49' W 122°21'7 7.1
2016-Jul-22 22:33N 37°55' W 122°25'5 4.7
2016-Jul-22 21:33N 37°59' W 122°27'0 0.0
2016-Jul-22 19:14N 37°59' W 122°27'2 3.4
2016-Jul-22 18:33N 37°57' W 122°27'8 8.1
2016-Jul-22 17:33N 37°50' W 122°22'3 2.8
2016-Jul-22 16:33N 37°49' W 122°18'0 0.5
2016-Jul-22 15:33N 37°49' W 122°19'1 1.4
2016-Jul-22 14:33N 37°48' W 122°20'3 3.2
2016-Jul-22 13:33N 37°47' W 122°16'1 1.5
2016-Jul-22 12:33N 37°46' W 122°15'0 0.0
2016-Jul-22 11:33N 37°46' W 122°15'0 0.0
2016-Jul-22 10:33N 37°46' W 122°15'0 0.0
2016-Jul-22 09:33N 37°46' W 122°15'0 0.0
2016-Jul-22 08:33N 37°46' W 122°15'0 0.0
2016-Jul-22 07:33N 37°46' W 122°15'0 0.0
2016-Jul-22 05:33N 37°46' W 122°15'0 0.0
2016-Jul-22 04:33N 37°46' W 122°15'0 0.0
2016-Jul-22 03:33N 37°46' W 122°15'0 0.0
2016-Jul-22 02:33N 37°46' W 122°15'0 0.0
2016-Jul-22 01:33N 37°46' W 122°15'5 4.7
2016-Jul-22 00:34N 37°48' W 122°20'0 0.1
2016-Jul-21 23:33N 37°48' W 122°20'1 0.5
2016-Jul-21 22:33N 37°48' W 122°21'2 1.9
2016-Jul-21 21:34N 37°49' W 122°19'0 0.0
2016-Jul-21 20:33N 37°49' W 122°19'0 0.0
2016-Jul-21 19:33N 37°49' W 122°19'2 1.8
2016-Jul-21 18:33N 37°48' W 122°21'2 1.8
2016-Jul-21 17:33N 37°49' W 122°19'2 1.7
2016-Jul-21 16:33N 37°48' W 122°20'0 0.1
2016-Jul-21 15:33N 37°48' W 122°20'0 0.0
2016-Jul-21 14:33N 37°48' W 122°20'1 0.9
2016-Jul-21 13:33N 37°49' W 122°20'1 0.9
2016-Jul-21 12:33N 37°49' W 122°18'0 0.0
2016-Jul-21 11:33N 37°49' W 122°18'0 0.0
2016-Jul-21 10:33N 37°49' W 122°18'0 0.0
2016-Jul-21 09:33N 37°49' W 122°18'0 0.0
2016-Jul-21 08:33N 37°49' W 122°18'0 0.0
2016-Jul-21 07:33N 37°49' W 122°18'0 0.0
2016-Jul-21 06:33N 37°49' W 122°18'0 0.0
2016-Jul-21 05:33N 37°49' W 122°18'0 0.0
2016-Jul-21 04:33N 37°49' W 122°18'0 0.0
2016-Jul-21 03:33N 37°49' W 122°18'0 0.0
2016-Jul-21 02:33N 37°49' W 122°18'0 0.0
2016-Jul-21 01:33N 37°49' W 122°18'0 0.0
2016-Jul-21 00:33N 37°49' W 122°18'0 0.0
2016-Jul-20 23:34N 37°49' W 122°18'2 1.9
2016-Jul-20 22:34N 37°48' W 122°20'0 0.1
2016-Jul-20 21:33N 37°48' W 122°20'0 0.0
2016-Jul-20 20:33N 37°48' W 122°20'2 1.8
2016-Jul-20 19:33N 37°49' W 122°19'0 0.1
2016-Jul-20 18:33N 37°49' W 122°19'0 0.0
2016-Jul-20 17:33N 37°49' W 122°19'0 0.0
2016-Jul-20 16:33N 37°49' W 122°19'0 0.1
2016-Jul-20 15:33N 37°49' W 122°19'0 0.0
2016-Jul-20 14:33N 37°49' W 122°19'0 0.0
2016-Jul-20 13:33N 37°49' W 122°19'0 0.2
2016-Jul-20 12:33N 37°49' W 122°19'3 3.1
2016-Jul-20 11:33N 37°51' W 122°22'7 7.1
2016-Jul-20 10:33N 37°57' W 122°26'9 6.3
2016-Jul-20 09:11N 38°03' W 122°18'3 5.2
2016-Jul-20 08:33N 38°04' W 122°14'15 5.0
2016-Jul-20 05:33N 38°03' W 121°55'  
Track history (hours):
 
Tides and Currents Weather Stations Pressure Air Temp Water Temp Dewpoint Dewpoint Depression Visibility Wind Speed Wind Dir Waves Ship Positions

Terri L. Brusco

Owner: Brusco Tug & Barge, Inc., Longview, WA. More information available from US FCC via Universal Licensing System and Coast Guard Vessel Documentation Center.

Last reported at 2016-Jul-28 08:32 UTC. Time now 2016-Jul-28 08:38 UTC.
Position N 37°59' W 122°27'.

Length 21 m; draft 4 m.

Type: Tug. MMSI: 367001830.

Date/timePositionNaut miles runAvg speedWind from/ knotsBaromVisibWave heightAir tempDewpointWater temp
2016-Jul-28 08:32N 37°59' W 122°27'0 0.0
2016-Jul-28 07:33N 37°59' W 122°27'0 0.0
2016-Jul-28 06:33N 37°59' W 122°27'0 0.0
2016-Jul-28 05:33N 37°59' W 122°27'0 0.0
2016-Jul-28 04:33N 37°59' W 122°27'2 0.9
2016-Jul-28 02:33N 37°57' W 122°27'8 8.0
2016-Jul-28 01:33N 37°49' W 122°25'3 3.2
2016-Jul-28 00:33N 37°48' W 122°21'1 0.9
2016-Jul-27 23:34N 37°49' W 122°21'10 9.5
2016-Jul-27 22:33N 37°58' W 122°26'3 3.0
2016-Jul-27 21:33N 37°55' W 122°27'6 6.4
2016-Jul-27 20:33N 37°49' W 122°26'0 0.1
2016-Jul-27 19:33N 37°49' W 122°26'6 5.6
2016-Jul-27 18:33N 37°49' W 122°19'0 0.4
2016-Jul-27 17:33N 37°49' W 122°19'0 0.0
2016-Jul-27 16:33N 37°49' W 122°19'5 4.7
2016-Jul-27 15:33N 37°49' W 122°24'0 0.2
2016-Jul-27 14:33N 37°49' W 122°25'1 0.8
2016-Jul-27 13:33N 37°48' W 122°24'4 4.4
2016-Jul-27 12:33N 37°49' W 122°18'0 0.0
2016-Jul-27 11:33N 37°49' W 122°18'0 0.0
2016-Jul-27 10:33N 37°49' W 122°18'0 0.0
2016-Jul-27 09:33N 37°49' W 122°18'0 0.0
2016-Jul-27 08:33N 37°49' W 122°18'0 0.0
2016-Jul-27 07:33N 37°49' W 122°18'0 0.0
2016-Jul-27 06:33N 37°49' W 122°18'0 0.0
2016-Jul-27 05:33N 37°49' W 122°18'0 0.0
2016-Jul-27 04:33N 37°49' W 122°18'0 0.0
2016-Jul-27 03:33N 37°49' W 122°18'4 4.2
2016-Jul-27 02:33N 37°51' W 122°23'7 7.1
2016-Jul-27 01:33N 37°58' W 122°26'1 0.7
2016-Jul-26 23:28N 37°59' W 122°27'0 0.0
2016-Jul-26 22:33N 37°59' W 122°27'0 0.0
2016-Jul-26 21:27N 37°59' W 122°27'0 0.3
2016-Jul-26 20:33N 37°59' W 122°27'4 3.9
2016-Jul-26 19:33N 37°55' W 122°27'7 6.7
2016-Jul-26 18:33N 37°49' W 122°24'1 1.1
2016-Jul-26 17:33N 37°49' W 122°25'1 0.6
2016-Jul-26 16:33N 37°49' W 122°24'7 7.0
2016-Jul-26 15:33N 37°55' W 122°27'4 3.6
2016-Jul-26 14:31N 37°59' W 122°27'0 0.1
2016-Jul-26 13:33N 37°59' W 122°27'0 0.0
2016-Jul-26 11:32N 37°59' W 122°27'0 0.0
2016-Jul-26 10:33N 37°59' W 122°27'0 0.0
2016-Jul-26 09:32N 37°59' W 122°27'0 0.1
2016-Jul-26 08:33N 37°59' W 122°27'0 0.0
2016-Jul-26 07:32N 37°59' W 122°27'0 0.0
2016-Jul-26 06:33N 37°59' W 122°27'1 1.2
2016-Jul-26 05:33N 37°58' W 122°27'5 5.3
2016-Jul-26 04:33N 37°53' W 122°25'4 4.3
2016-Jul-26 03:33N 37°48' W 122°26'0 0.2
2016-Jul-26 02:34N 37°49' W 122°27'0 0.0
2016-Jul-26 01:33N 37°49' W 122°27'0 0.0
2016-Jul-26 00:33N 37°49' W 122°27'3 2.5
2016-Jul-25 23:33N 37°49' W 122°23'2 1.7
2016-Jul-25 22:34N 37°50' W 122°22'10 9.7
2016-Jul-25 21:33N 37°59' W 122°26'5 4.8
2016-Jul-25 20:33N 37°54' W 122°26'6 5.7
2016-Jul-25 19:33N 37°49' W 122°26'6 6.0
2016-Jul-25 18:33N 37°49' W 122°19'4 4.4
2016-Jul-25 17:33N 37°48' W 122°24'1 1.1
2016-Jul-25 16:33N 37°49' W 122°23'1 1.0
2016-Jul-25 15:33N 37°48' W 122°24'0 0.0
2016-Jul-25 14:33N 37°48' W 122°24'0 0.0
2016-Jul-25 13:33N 37°48' W 122°24'3 3.4
2016-Jul-25 12:33N 37°49' W 122°20'1 1.2
2016-Jul-25 11:33N 37°49' W 122°18'0 0.0
2016-Jul-25 10:33N 37°49' W 122°18'0 0.0
2016-Jul-25 09:33N 37°49' W 122°18'0 0.0
2016-Jul-25 08:33N 37°49' W 122°18'0 0.0
2016-Jul-25 07:33N 37°49' W 122°18'0 0.0
2016-Jul-25 06:33N 37°49' W 122°18'0 0.0
2016-Jul-25 05:33N 37°49' W 122°18'0 0.0
2016-Jul-25 04:33N 37°49' W 122°18'0 0.0
2016-Jul-25 03:33N 37°49' W 122°18'0 0.0
2016-Jul-25 02:33N 37°49' W 122°18'0 0.0
2016-Jul-25 01:33N 37°49' W 122°18'0 0.0
2016-Jul-25 00:33N 37°49' W 122°18'0 0.0
2016-Jul-24 23:34N 37°49' W 122°18'0 0.0
2016-Jul-24 22:33N 37°49' W 122°18'0 0.0
2016-Jul-24 21:33N 37°49' W 122°18'0 0.0
2016-Jul-24 20:33N 37°49' W 122°18'0 0.0
2016-Jul-24 19:33N 37°49' W 122°18'0 0.0
2016-Jul-24 18:33N 37°49' W 122°18'0 0.0
2016-Jul-24 17:33N 37°49' W 122°18'0 0.0
2016-Jul-24 16:33N 37°49' W 122°18'0 0.0
2016-Jul-24 15:33N 37°49' W 122°19'0 0.0
2016-Jul-24 14:33N 37°49' W 122°19'0 0.0
2016-Jul-24 13:33N 37°49' W 122°19'0 0.0
2016-Jul-24 12:33N 37°49' W 122°19'0 0.0
2016-Jul-24 11:33N 37°49' W 122°19'0 0.0
2016-Jul-24 10:33N 37°49' W 122°19'0 0.0
2016-Jul-24 09:33N 37°49' W 122°19'2 1.6
2016-Jul-24 08:33N 37°48' W 122°20'2 1.7
2016-Jul-24 07:33N 37°49' W 122°18'0 0.0
2016-Jul-24 06:33N 37°49' W 122°18'0 0.0
2016-Jul-24 05:33N 37°49' W 122°18'0 0.0
2016-Jul-24 04:33N 37°49' W 122°18'0 0.0
2016-Jul-24 03:33N 37°49' W 122°18'0 0.0
2016-Jul-24 02:33N 37°49' W 122°18'0 0.0
2016-Jul-24 01:33N 37°49' W 122°18'0 0.0
2016-Jul-24 00:33N 37°49' W 122°18'1 1.2
2016-Jul-23 23:33N 37°49' W 122°20'1 1.1
2016-Jul-23 22:33N 37°49' W 122°19'0 0.0
2016-Jul-23 21:33N 37°49' W 122°19'1 1.3
2016-Jul-23 20:33N 37°49' W 122°20'1 1.4
2016-Jul-23 19:33N 37°49' W 122°18'0 0.0
2016-Jul-23 18:34N 37°49' W 122°18'0 0.0
2016-Jul-23 17:33N 37°49' W 122°18'0 0.0
2016-Jul-23 16:33N 37°49' W 122°18'0 0.0
2016-Jul-23 15:33N 37°49' W 122°18'0 0.0
2016-Jul-23 14:33N 37°49' W 122°18'2 1.7
2016-Jul-23 13:33N 37°48' W 122°20'2 1.6
2016-Jul-23 12:33N 37°49' W 122°19'0 0.0
2016-Jul-23 11:33N 37°49' W 122°19'0 0.0
2016-Jul-23 10:33N 37°49' W 122°19'0 0.0
2016-Jul-23 09:33N 37°49' W 122°19'0 0.0
2016-Jul-23 08:33N 37°49' W 122°19'1 1.5
2016-Jul-23 07:33N 37°49' W 122°20'5 5.0
2016-Jul-23 06:33N 37°46' W 122°15'0 0.0
2016-Jul-23 04:34N 37°46' W 122°15'0 0.0
2016-Jul-23 03:33N 37°46' W 122°15'0 0.0
2016-Jul-23 02:33N 37°46' W 122°15'0 0.5
2016-Jul-23 01:33N 37°47' W 122°15'4 4.0
2016-Jul-23 00:33N 37°49' W 122°19'1 1.3
2016-Jul-22 23:33N 37°49' W 122°21'7 7.1
2016-Jul-22 22:33N 37°55' W 122°25'5 4.7
2016-Jul-22 21:33N 37°59' W 122°27'0 0.0
2016-Jul-22 19:14N 37°59' W 122°27'2 3.4
2016-Jul-22 18:33N 37°57' W 122°27'8 8.1
2016-Jul-22 17:33N 37°50' W 122°22'3 2.8
2016-Jul-22 16:33N 37°49' W 122°18'0 0.5
2016-Jul-22 15:33N 37°49' W 122°19'1 1.4
2016-Jul-22 14:33N 37°48' W 122°20'3 3.2
2016-Jul-22 13:33N 37°47' W 122°16'1 1.5
2016-Jul-22 12:33N 37°46' W 122°15'0 0.0
2016-Jul-22 11:33N 37°46' W 122°15'0 0.0
2016-Jul-22 10:33N 37°46' W 122°15'0 0.0
2016-Jul-22 09:33N 37°46' W 122°15'0 0.0
2016-Jul-22 08:33N 37°46' W 122°15'0 0.0
2016-Jul-22 07:33N 37°46' W 122°15'0 0.0
2016-Jul-22 05:33N 37°46' W 122°15'0 0.0
2016-Jul-22 04:33N 37°46' W 122°15'0 0.0
2016-Jul-22 03:33N 37°46' W 122°15'0 0.0
2016-Jul-22 02:33N 37°46' W 122°15'0 0.0
2016-Jul-22 01:33N 37°46' W 122°15'5 4.7
2016-Jul-22 00:34N 37°48' W 122°20'0 0.1
2016-Jul-21 23:33N 37°48' W 122°20'1 0.5
2016-Jul-21 22:33N 37°48' W 122°21'2 1.9
2016-Jul-21 21:34N 37°49' W 122°19'0 0.0
2016-Jul-21 20:33N 37°49' W 122°19'0 0.0
2016-Jul-21 19:33N 37°49' W 122°19'2 1.8
2016-Jul-21 18:33N 37°48' W 122°21'2 1.8
2016-Jul-21 17:33N 37°49' W 122°19'2 1.7
2016-Jul-21 16:33N 37°48' W 122°20'0 0.1
2016-Jul-21 15:33N 37°48' W 122°20'0 0.0
2016-Jul-21 14:33N 37°48' W 122°20'1 0.9
2016-Jul-21 13:33N 37°49' W 122°20'1 0.9
2016-Jul-21 12:33N 37°49' W 122°18'0 0.0
2016-Jul-21 11:33N 37°49' W 122°18'0 0.0
2016-Jul-21 10:33N 37°49' W 122°18'0 0.0
2016-Jul-21 09:33N 37°49' W 122°18'0 0.0
2016-Jul-21 08:33N 37°49' W 122°18'0 0.0
2016-Jul-21 07:33N 37°49' W 122°18'0 0.0
2016-Jul-21 06:33N 37°49' W 122°18'0 0.0
2016-Jul-21 05:33N 37°49' W 122°18'0 0.0
2016-Jul-21 04:33N 37°49' W 122°18'0 0.0
2016-Jul-21 03:33N 37°49' W 122°18'0 0.0
2016-Jul-21 02:33N 37°49' W 122°18'0 0.0
2016-Jul-21 01:33N 37°49' W 122°18'0 0.0
2016-Jul-21 00:33N 37°49' W 122°18'0 0.0
2016-Jul-20 23:34N 37°49' W 122°18'2 1.9
2016-Jul-20 22:34N 37°48' W 122°20'0 0.1
2016-Jul-20 21:33N 37°48' W 122°20'0 0.0
2016-Jul-20 20:33N 37°48' W 122°20'2 1.8
2016-Jul-20 19:33N 37°49' W 122°19'0 0.1
2016-Jul-20 18:33N 37°49' W 122°19'0 0.0
2016-Jul-20 17:33N 37°49' W 122°19'0 0.0
2016-Jul-20 16:33N 37°49' W 122°19'0 0.1
2016-Jul-20 15:33N 37°49' W 122°19'0 0.0
2016-Jul-20 14:33N 37°49' W 122°19'0 0.0
2016-Jul-20 13:33N 37°49' W 122°19'0 0.2
2016-Jul-20 12:33N 37°49' W 122°19'3 3.1
2016-Jul-20 11:33N 37°51' W 122°22'7 7.1
2016-Jul-20 10:33N 37°57' W 122°26'9 6.3
2016-Jul-20 09:11N 38°03' W 122°18'3 5.2
2016-Jul-20 08:33N 38°04' W 122°14'15 5.0
2016-Jul-20 05:33N 38°03' W 121°55'  

Dump ship's entire track history